Weather reports worldwide

Advertisment
Stonyhurst, United Kingdom (99060): temperature & dewpoint: 22.05.2017 19:00:00 - 28.05.2017 19:00:00 (BST)Stonyhurst, United Kingdom (99060): temperature 5cm: 22.05.2017 19:00:00 - 28.05.2017 19:00:00 (BST)Stonyhurst, United Kingdom (99060): wind speed: 22.05.2017 19:00:00 - 28.05.2017 19:00:00 (BST)Stonyhurst, United Kingdom (99060): wind direction: 22.05.2017 19:00:00 - 28.05.2017 19:00:00 (BST)Stonyhurst, United Kingdom (99060): visibility: 22.05.2017 19:00:00 - 28.05.2017 19:00:00 (BST)Stonyhurst, United Kingdom (99060): precipitation: 22.05.2017 19:00:00 - 28.05.2017 19:00:00 (BST)
Date & Time tt [°C] td [°C] tt 5cm [°C] ff [km/h] ff [kn] dd vv [km] rr [mm]
28.05.2017 19:00:00 15,5 9,9 - - - - - 0,0
28.05.2017 18:00:00 15,4 10,1 - - - - - 0,0
28.05.2017 17:00:00 15,3 10,5 - - - - - 0,0
28.05.2017 16:00:00 14,6 10,3 - - - - - 0,0
28.05.2017 15:00:00 14,5 10,7 - - - - - 0,0
28.05.2017 14:00:00 14,1 10,2 - - - - - 0,0
28.05.2017 13:00:00 13,6 10,6 - - - - - 0,0
28.05.2017 12:00:00 13,2 10,6 - - - - - 0,0
28.05.2017 11:00:00 12,7 10,4 - - - - - 0,0
28.05.2017 10:00:00 12,6 10,6 - - - - 10 0,0
28.05.2017 09:00:00 12,6 11,2 - - - - - 0,0
28.05.2017 08:00:00 12,7 11,6 - - - - - 0,0
28.05.2017 07:00:00 12,4 11,7 - - - - - 0,0
28.05.2017 06:00:00 12,6 11,9 - - - - - 0,2
28.05.2017 05:00:00 12,8 12,5 - - - - - 0,4
28.05.2017 04:00:00 12,9 12,5 - - - - - 0,0
28.05.2017 03:00:00 12,9 12,6 - - - - - 0,6
28.05.2017 02:00:00 13,0 12,6 - - - - - 2,0
28.05.2017 01:00:00 13,2 12,9 - - - - - 2,0
28.05.2017 00:00:00 12,8 12,5 - - - - - 0,4
27.05.2017 23:00:00 13,7 13,3 - - - - - 0,6
27.05.2017 22:00:00 14,3 13,8 - - - - - 0,6
27.05.2017 21:00:00 14,8 14,0 - - - - - 0,2
27.05.2017 20:00:00 16,4 12,9 - - - - - 0,0
27.05.2017 19:00:00 16,1 13,5 - - - - - 0,0
27.05.2017 18:00:00 17,2 13,7 - - - - - 0,0
27.05.2017 17:00:00 17,9 13,8 - - - - - 0,0
27.05.2017 16:00:00 19,5 14,5 - - - - - 0,0
27.05.2017 15:00:00 20,6 17,0 - - - - - 7,6
27.05.2017 14:00:00 24,3 15,4 - - - - - 0,0
27.05.2017 13:00:00 24,8 16,2 - - - - - 0,0
27.05.2017 12:00:00 23,4 15,2 - - - - - 0,0
27.05.2017 11:00:00 20,7 15,9 - - - - - 0,0
27.05.2017 10:00:00 18,7 14,7 - - - - 10 0,0
27.05.2017 09:00:00 16,8 13,5 - - - - - 0,0
27.05.2017 08:00:00 15,8 12,9 - - - - - 0,0
27.05.2017 07:00:00 15,9 13,1 - - - - - 0,0
27.05.2017 06:00:00 14,6 12,2 - - - - - 0,0
27.05.2017 05:00:00 14,8 11,7 - - - - - 0,0
27.05.2017 04:00:00 16,0 11,3 - - - - - 0,0
27.05.2017 03:00:00 16,1 12,1 - - - - - 0,0
27.05.2017 02:00:00 16,2 12,2 - - - - - 0,0
27.05.2017 01:00:00 16,9 12,4 - - - - - 0,0
27.05.2017 00:00:00 17,3 12,9 - - - - - 0,0
26.05.2017 23:00:00 18,6 12,1 - - - - - 0,0
26.05.2017 22:00:00 20,3 12,5 - - - - - 0,0
26.05.2017 21:00:00 22,1 12,9 - - - - - 0,0
26.05.2017 20:00:00 23,6 12,9 - - - - - 0,0
26.05.2017 19:00:00 24,6 12,9 - - - - - 0,0
26.05.2017 18:00:00 25,2 12,6 - - - - - 0,0
26.05.2017 17:00:00 25,5 12,5 - - - - - 0,0
26.05.2017 16:00:00 25,5 13,2 - - - - - 0,0
26.05.2017 15:00:00 25,3 12,1 - - - - - 0,0
26.05.2017 14:00:00 25,1 11,9 - - - - - 0,0
26.05.2017 13:00:00 24,9 12,4 - - - - - 0,0
26.05.2017 12:00:00 24,0 13,3 - - - - - 0,0
26.05.2017 11:00:00 23,0 12,3 - - - - - 0,0
26.05.2017 10:00:00 22,1 13,0 - - - - - 0,0
26.05.2017 09:00:00 20,8 12,5 - - - - - 0,0
26.05.2017 08:00:00 19,3 12,7 - - - - - 0,0
26.05.2017 07:00:00 17,4 10,9 - - - - - 0,0
26.05.2017 06:00:00 15,3 12,5 - - - - - 0,0
26.05.2017 05:00:00 14,6 12,6 - - - - - 0,0
26.05.2017 04:00:00 15,8 13,6 - - - - - 0,0
26.05.2017 03:00:00 15,9 14,3 - - - - - 0,0
26.05.2017 02:00:00 16,7 15,0 - - - - - 0,0
26.05.2017 01:00:00 17,0 15,1 - - - - - 0,0
26.05.2017 00:00:00 17,7 14,7 - - - - - 0,0
25.05.2017 23:00:00 19,0 14,2 - - - - - 0,0
25.05.2017 22:00:00 21,2 14,4 - - - - - 0,0
25.05.2017 21:00:00 22,3 13,9 - - - - - 0,0
25.05.2017 20:00:00 23,7 14,3 - - - - - 0,0
25.05.2017 19:00:00 25,0 14,6 - - - - - 0,0
25.05.2017 18:00:00 25,9 15,6 - - - - - 0,0
25.05.2017 17:00:00 25,9 15,2 - - - - - 0,0
25.05.2017 16:00:00 25,9 15,1 - - - - - 0,0
25.05.2017 15:00:00 25,0 14,0 - - - - - 0,0
25.05.2017 14:00:00 25,0 15,3 - - - - - 0,0
25.05.2017 13:00:00 24,3 14,3 - - - - - 0,0
25.05.2017 12:00:00 23,5 15,2 - - - - - 0,0
25.05.2017 11:00:00 22,5 15,0 - - - - - 0,0
25.05.2017 10:00:00 19,9 15,5 - - - - 10 0,0
25.05.2017 09:00:00 15,4 14,4 - - - - - 0,0
25.05.2017 08:00:00 12,0 11,9 - - - - - 0,0
25.05.2017 07:00:00 11,7 11,6 - - - - - 0,0
25.05.2017 06:00:00 12,0 11,8 - - - - - 0,0
25.05.2017 05:00:00 12,1 11,9 - - - - - 0,0
25.05.2017 04:00:00 12,1 11,9 - - - - - 0,0
25.05.2017 03:00:00 11,9 11,7 - - - - - 0,0
25.05.2017 02:00:00 12,0 11,8 - - - - - 0,0
25.05.2017 01:00:00 11,0 10,5 - - - - - 0,0
25.05.2017 00:00:00 11,8 11,2 - - - - - 0,0
24.05.2017 23:00:00 12,6 11,8 - - - - - 0,0
24.05.2017 22:00:00 13,8 12,4 - - - - - 0,0
24.05.2017 21:00:00 15,4 13,0 - - - - - 0,0
24.05.2017 20:00:00 16,5 13,6 - - - - - 0,0
24.05.2017 19:00:00 16,8 13,8 - - - - - 0,0
24.05.2017 18:00:00 17,5 14,2 - - - - - 0,0
24.05.2017 17:00:00 17,8 14,4 - - - - - 0,0
24.05.2017 16:00:00 18,1 14,2 - - - - - 0,0
24.05.2017 15:00:00 18,4 14,3 - - - - - 0,0
24.05.2017 14:00:00 18,0 13,8 - - - - - 0,0
24.05.2017 13:00:00 17,4 13,9 - - - - - 0,0
24.05.2017 12:00:00 16,9 14,0 - - - - - 0,0
24.05.2017 11:00:00 15,6 13,4 - - - - - 0,0
24.05.2017 10:00:00 15,3 13,6 15,3 94 51 N 0,7 0,0
24.05.2017 09:00:00 14,3 13,1 - - - - - 0,0
24.05.2017 08:00:00 13,7 12,8 - - - - - 0,0
24.05.2017 07:00:00 13,4 12,6 - - - - - 0,0
24.05.2017 06:00:00 13,4 12,4 - - - - - 0,0
24.05.2017 05:00:00 13,5 12,3 - - - - - 0,0
24.05.2017 04:00:00 13,8 12,4 - - - - - 0,0
24.05.2017 03:00:00 13,9 12,0 - - - - - 0,0
24.05.2017 02:00:00 14,0 11,8 - - - - - 0,0
24.05.2017 01:00:00 13,7 11,6 - - - - - 0,0
24.05.2017 00:00:00 13,3 11,3 - - - - - 0,0
23.05.2017 23:00:00 12,9 10,1 - - - - - 0,0
23.05.2017 22:00:00 13,4 10,3 - - - - - 0,0
23.05.2017 21:00:00 14,6 10,0 - - - - - 0,0
23.05.2017 20:00:00 15,6 9,9 - - - - - 0,0
23.05.2017 19:00:00 16,8 8,8 - - - - - -
23.05.2017 18:00:00 17,3 8,1 - - - - - 0,0
23.05.2017 17:00:00 17,2 7,8 - - - - - 0,0
23.05.2017 16:00:00 17,5 9,6 - - - - - 0,0
23.05.2017 15:00:00 17,2 9,8 - - - - - 0,0
23.05.2017 14:00:00 17,8 10,1 - - - - - 0,0
23.05.2017 13:00:00 16,4 8,7 - - - - - 0,0
23.05.2017 12:00:00 15,8 9,3 - - - - - 0,0
23.05.2017 11:00:00 16,4 10,0 - - - - - 0,0
23.05.2017 10:00:00 14,9 9,6 15,4 25 14 N 0,1 0,0
23.05.2017 09:00:00 14,1 10,1 - - - - - 0,0
23.05.2017 08:00:00 12,9 9,9 - - - - - 0,0
23.05.2017 07:00:00 12,3 10,2 - - - - - 0,0
23.05.2017 06:00:00 11,7 10,1 - - - - - 0,0
23.05.2017 05:00:00 11,5 10,4 - - - - - 0,0
23.05.2017 04:00:00 11,5 10,4 - - - - - 0,0
23.05.2017 03:00:00 11,6 10,4 - - - - - 0,0
23.05.2017 02:00:00 11,6 10,2 - - - - - 0,0
23.05.2017 01:00:00 12,2 10,1 - - - - - 0,0
23.05.2017 00:00:00 12,3 9,5 - - - - - 0,0
22.05.2017 23:00:00 12,6 9,7 - - - - - 0,0
22.05.2017 22:00:00 13,0 9,6 - - - - - 0,0
22.05.2017 21:00:00 14,4 10,3 - - - - - 0,0
22.05.2017 20:00:00 15,0 10,9 - - - - - 0,0
22.05.2017 19:00:00 15,9 11,5 - - - - - 0,0

tt = temperature
td = dewpoint
tt 5cm = temperature 5cm
ff = wind speed
dd = wind direction
vv = visibility
rr = precipitation

Next stations